sensor_id;sensor_type;location;lat;lon;timestamp;temperature;humidity
56322;DHT22;42227;6.376;-10.782;2022-10-16T00:01:42;23.40;99.90
56322;DHT22;42227;6.376;-10.782;2022-10-16T00:04:10;23.30;99.90
56322;DHT22;42227;6.376;-10.782;2022-10-16T00:06:39;23.20;99.90
56322;DHT22;42227;6.376;-10.782;2022-10-16T00:09:07;23.20;99.90
56322;DHT22;42227;6.376;-10.782;2022-10-16T00:11:38;23.10;99.90
56322;DHT22;42227;6.376;-10.782;2022-10-16T00:14:12;23.10;99.90
56322;DHT22;42227;6.376;-10.782;2022-10-16T00:16:42;23.00;99.90
56322;DHT22;42227;6.376;-10.782;2022-10-16T00:19:11;23.10;99.90
56322;DHT22;42227;6.376;-10.782;2022-10-16T00:21:40;23.00;99.90
56322;DHT22;42227;6.376;-10.782;2022-10-16T00:24:10;23.10;99.90
56322;DHT22;42227;6.376;-10.782;2022-10-16T00:26:39;23.10;99.90
56322;DHT22;42227;6.376;-10.782;2022-10-16T00:29:08;23.00;99.90
56322;DHT22;42227;6.376;-10.782;2022-10-16T00:31:37;23.20;99.90
56322;DHT22;42227;6.376;-10.782;2022-10-16T00:34:05;23.30;99.90
56322;DHT22;42227;6.376;-10.782;2022-10-16T00:36:33;23.30;99.90
56322;DHT22;42227;6.376;-10.782;2022-10-16T00:39:01;23.10;99.90
56322;DHT22;42227;6.376;-10.782;2022-10-16T00:41:30;23.10;99.90
56322;DHT22;42227;6.376;-10.782;2022-10-16T00:44:01;23.00;99.90
56322;DHT22;42227;6.376;-10.782;2022-10-16T00:46:37;22.90;99.90
56322;DHT22;42227;6.376;-10.782;2022-10-16T00:49:15;23.00;99.90
56322;DHT22;42227;6.376;-10.782;2022-10-16T00:51:49;22.90;99.90
56322;DHT22;42227;6.376;-10.782;2022-10-16T00:54:19;22.90;99.90
56322;DHT22;42227;6.376;-10.782;2022-10-16T00:56:49;22.90;99.90
56322;DHT22;42227;6.376;-10.782;2022-10-16T00:59:42;22.90;99.90
56322;DHT22;42227;6.376;-10.782;2022-10-16T01:02:14;22.90;99.90
56322;DHT22;42227;6.376;-10.782;2022-10-16T01:04:51;23.00;99.90
56322;DHT22;42227;6.376;-10.782;2022-10-16T01:10:37;23.20;99.90
56322;DHT22;42227;6.376;-10.782;2022-10-16T01:13:24;22.90;99.90
56322;DHT22;42227;6.376;-10.782;2022-10-16T01:15:59;22.90;99.90
56322;DHT22;42227;6.376;-10.782;2022-10-16T01:18:49;23.00;99.90
56322;DHT22;42227;6.376;-10.782;2022-10-16T01:30:09;22.90;99.90
56322;DHT22;42227;6.376;-10.782;2022-10-16T01:32:55;22.90;99.90
56322;DHT22;42227;6.376;-10.782;2022-10-16T01:35:31;22.90;99.90
56322;DHT22;42227;6.376;-10.782;2022-10-16T01:38:35;22.90;99.90
56322;DHT22;42227;6.376;-10.782;2022-10-16T01:41:36;23.00;99.90
56322;DHT22;42227;6.376;-10.782;2022-10-16T01:44:10;23.20;99.90
56322;DHT22;42227;6.376;-10.782;2022-10-16T01:46:43;23.00;99.90
56322;DHT22;42227;6.376;-10.782;2022-10-16T01:49:12;23.20;99.90
56322;DHT22;42227;6.376;-10.782;2022-10-16T01:51:42;23.20;99.90
56322;DHT22;42227;6.376;-10.782;2022-10-16T01:54:14;23.20;99.90
56322;DHT22;42227;6.376;-10.782;2022-10-16T01:56:45;23.20;99.90
56322;DHT22;42227;6.376;-10.782;2022-10-16T01:59:16;23.20;99.90
56322;DHT22;42227;6.376;-10.782;2022-10-16T02:01:52;23.10;99.90
56322;DHT22;42227;6.376;-10.782;2022-10-16T02:04:33;23.10;99.90
56322;DHT22;42227;6.376;-10.782;2022-10-16T02:07:02;23.10;99.90
56322;DHT22;42227;6.376;-10.782;2022-10-16T02:09:33;23.10;99.90
56322;DHT22;42227;6.376;-10.782;2022-10-16T02:12:08;23.20;99.90
56322;DHT22;42227;6.376;-10.782;2022-10-16T02:14:39;23.10;99.90
56322;DHT22;42227;6.376;-10.782;2022-10-16T02:17:16;23.10;99.90
56322;DHT22;42227;6.376;-10.782;2022-10-16T02:19:48;23.20;99.90
56322;DHT22;42227;6.376;-10.782;2022-10-16T02:22:32;23.40;99.90
56322;DHT22;42227;6.376;-10.782;2022-10-16T02:30:40;23.40;99.90
56322;DHT22;42227;6.376;-10.782;2022-10-16T02:33:12;23.40;99.90
56322;DHT22;42227;6.376;-10.782;2022-10-16T02:35:42;23.40;99.90
56322;DHT22;42227;6.376;-10.782;2022-10-16T02:38:12;23.40;99.90
56322;DHT22;42227;6.376;-10.782;2022-10-16T02:40:42;23.40;99.90
56322;DHT22;42227;6.376;-10.782;2022-10-16T02:43:11;23.30;99.90
56322;DHT22;42227;6.376;-10.782;2022-10-16T02:45:39;23.30;99.90
56322;DHT22;42227;6.376;-10.782;2022-10-16T02:48:07;23.30;99.90
56322;DHT22;42227;6.376;-10.782;2022-10-16T02:50:36;23.30;99.90
56322;DHT22;42227;6.376;-10.782;2022-10-16T02:53:04;23.30;99.90
56322;DHT22;42227;6.376;-10.782;2022-10-16T02:55:32;23.30;99.90
56322;DHT22;42227;6.376;-10.782;2022-10-16T02:58:00;23.40;99.90
56322;DHT22;42227;6.376;-10.782;2022-10-16T03:00:28;23.40;99.90
56322;DHT22;42227;6.376;-10.782;2022-10-16T03:02:56;23.60;99.90
56322;DHT22;42227;6.376;-10.782;2022-10-16T03:05:25;23.50;99.90
56322;DHT22;42227;6.376;-10.782;2022-10-16T03:07:53;23.50;99.90
56322;DHT22;42227;6.376;-10.782;2022-10-16T03:10:21;23.50;99.90
56322;DHT22;42227;6.376;-10.782;2022-10-16T03:12:49;23.50;99.90
56322;DHT22;42227;6.376;-10.782;2022-10-16T03:15:17;23.40;99.90
56322;DHT22;42227;6.376;-10.782;2022-10-16T03:17:46;23.40;99.90
56322;DHT22;42227;6.376;-10.782;2022-10-16T03:20:14;23.40;99.90
56322;DHT22;42227;6.376;-10.782;2022-10-16T03:22:42;23.40;99.90
56322;DHT22;42227;6.376;-10.782;2022-10-16T03:25:10;23.50;99.90
56322;DHT22;42227;6.376;-10.782;2022-10-16T03:27:38;23.50;99.90
56322;DHT22;42227;6.376;-10.782;2022-10-16T03:30:07;23.50;99.90
56322;DHT22;42227;6.376;-10.782;2022-10-16T03:32:35;23.50;99.90
56322;DHT22;42227;6.376;-10.782;2022-10-16T03:35:04;23.50;99.90
56322;DHT22;42227;6.376;-10.782;2022-10-16T03:37:32;23.60;99.90
56322;DHT22;42227;6.376;-10.782;2022-10-16T03:40:00;23.70;99.90
56322;DHT22;42227;6.376;-10.782;2022-10-16T03:42:29;23.60;99.90
56322;DHT22;42227;6.376;-10.782;2022-10-16T03:44:57;23.60;99.90
56322;DHT22;42227;6.376;-10.782;2022-10-16T03:47:25;23.60;99.90
56322;DHT22;42227;6.376;-10.782;2022-10-16T03:49:54;23.60;99.90
56322;DHT22;42227;6.376;-10.782;2022-10-16T03:52:22;23.60;99.90
56322;DHT22;42227;6.376;-10.782;2022-10-16T03:54:50;23.60;99.90
56322;DHT22;42227;6.376;-10.782;2022-10-16T03:57:18;23.60;99.90
56322;DHT22;42227;6.376;-10.782;2022-10-16T03:59:47;23.50;99.90
56322;DHT22;42227;6.376;-10.782;2022-10-16T04:02:15;23.60;99.90
56322;DHT22;42227;6.376;-10.782;2022-10-16T04:04:43;23.50;99.90
56322;DHT22;42227;6.376;-10.782;2022-10-16T04:07:11;23.50;99.90
56322;DHT22;42227;6.376;-10.782;2022-10-16T04:09:39;23.60;99.90
56322;DHT22;42227;6.376;-10.782;2022-10-16T04:12:08;23.70;99.90
56322;DHT22;42227;6.376;-10.782;2022-10-16T04:14:36;23.90;99.90
56322;DHT22;42227;6.376;-10.782;2022-10-16T04:17:04;23.80;99.90
56322;DHT22;42227;6.376;-10.782;2022-10-16T04:19:32;23.70;99.90
56322;DHT22;42227;6.376;-10.782;2022-10-16T04:22:00;23.60;99.90
56322;DHT22;42227;6.376;-10.782;2022-10-16T04:24:28;23.60;99.90
56322;DHT22;42227;6.376;-10.782;2022-10-16T04:26:57;23.60;99.90
56322;DHT22;42227;6.376;-10.782;2022-10-16T04:29:25;23.50;99.90
56322;DHT22;42227;6.376;-10.782;2022-10-16T04:31:53;23.60;99.90
56322;DHT22;42227;6.376;-10.782;2022-10-16T04:34:21;23.50;99.90
56322;DHT22;42227;6.376;-10.782;2022-10-16T04:36:49;23.50;99.90
56322;DHT22;42227;6.376;-10.782;2022-10-16T04:39:18;23.50;99.90
56322;DHT22;42227;6.376;-10.782;2022-10-16T04:41:46;23.50;99.90
56322;DHT22;42227;6.376;-10.782;2022-10-16T04:44:14;23.50;99.90
56322;DHT22;42227;6.376;-10.782;2022-10-16T04:46:42;23.70;99.90
56322;DHT22;42227;6.376;-10.782;2022-10-16T04:49:10;23.80;99.90
56322;DHT22;42227;6.376;-10.782;2022-10-16T04:51:38;23.80;99.90
56322;DHT22;42227;6.376;-10.782;2022-10-16T04:54:07;23.70;99.90
56322;DHT22;42227;6.376;-10.782;2022-10-16T04:56:36;23.60;99.90
56322;DHT22;42227;6.376;-10.782;2022-10-16T04:59:04;23.60;99.90
56322;DHT22;42227;6.376;-10.782;2022-10-16T05:01:32;23.60;99.90
56322;DHT22;42227;6.376;-10.782;2022-10-16T05:04:00;23.60;99.90
56322;DHT22;42227;6.376;-10.782;2022-10-16T05:06:29;23.50;99.90
56322;DHT22;42227;6.376;-10.782;2022-10-16T05:08:57;23.50;99.90
56322;DHT22;42227;6.376;-10.782;2022-10-16T05:11:25;23.50;99.90
56322;DHT22;42227;6.376;-10.782;2022-10-16T05:13:53;23.50;99.90
56322;DHT22;42227;6.376;-10.782;2022-10-16T05:16:22;23.50;99.90
56322;DHT22;42227;6.376;-10.782;2022-10-16T05:18:52;23.50;99.90
56322;DHT22;42227;6.376;-10.782;2022-10-16T05:21:36;23.40;99.90
56322;DHT22;42227;6.376;-10.782;2022-10-16T05:24:04;23.50;99.90
56322;DHT22;42227;6.376;-10.782;2022-10-16T05:26:32;23.50;99.90
56322;DHT22;42227;6.376;-10.782;2022-10-16T05:29:01;23.70;99.90
56322;DHT22;42227;6.376;-10.782;2022-10-16T05:31:29;23.50;99.90
56322;DHT22;42227;6.376;-10.782;2022-10-16T05:34:00;23.30;99.90
56322;DHT22;42227;6.376;-10.782;2022-10-16T05:36:28;23.30;99.90
56322;DHT22;42227;6.376;-10.782;2022-10-16T05:38:57;23.30;99.90
56322;DHT22;42227;6.376;-10.782;2022-10-16T05:41:25;23.40;99.90
56322;DHT22;42227;6.376;-10.782;2022-10-16T05:43:53;23.30;99.90
56322;DHT22;42227;6.376;-10.782;2022-10-16T05:46:21;23.30;99.90
56322;DHT22;42227;6.376;-10.782;2022-10-16T05:48:52;23.30;99.90
56322;DHT22;42227;6.376;-10.782;2022-10-16T05:51:20;23.30;99.90
56322;DHT22;42227;6.376;-10.782;2022-10-16T05:53:48;23.20;99.90
56322;DHT22;42227;6.376;-10.782;2022-10-16T05:56:16;23.20;99.90
56322;DHT22;42227;6.376;-10.782;2022-10-16T05:58:45;23.20;99.90
56322;DHT22;42227;6.376;-10.782;2022-10-16T06:01:16;23.20;99.90
56322;DHT22;42227;6.376;-10.782;2022-10-16T06:03:45;23.40;99.90
56322;DHT22;42227;6.376;-10.782;2022-10-16T06:06:21;23.40;99.90
56322;DHT22;42227;6.376;-10.782;2022-10-16T06:08:50;23.40;99.90
56322;DHT22;42227;6.376;-10.782;2022-10-16T06:11:27;23.20;99.90
56322;DHT22;42227;6.376;-10.782;2022-10-16T06:13:58;23.20;99.90
56322;DHT22;42227;6.376;-10.782;2022-10-16T06:16:27;23.20;99.90
56322;DHT22;42227;6.376;-10.782;2022-10-16T06:18:55;23.20;99.90
56322;DHT22;42227;6.376;-10.782;2022-10-16T06:21:25;23.20;99.90
56322;DHT22;42227;6.376;-10.782;2022-10-16T06:23:56;23.10;99.90
56322;DHT22;42227;6.376;-10.782;2022-10-16T06:26:27;23.10;99.90
56322;DHT22;42227;6.376;-10.782;2022-10-16T06:28:56;23.10;99.90
56322;DHT22;42227;6.376;-10.782;2022-10-16T06:31:26;23.10;99.90
56322;DHT22;42227;6.376;-10.782;2022-10-16T06:33:55;23.20;99.90
56322;DHT22;42227;6.376;-10.782;2022-10-16T06:36:23;23.10;99.90
56322;DHT22;42227;6.376;-10.782;2022-10-16T06:38:52;23.20;99.90
56322;DHT22;42227;6.376;-10.782;2022-10-16T06:41:21;23.20;99.90
56322;DHT22;42227;6.376;-10.782;2022-10-16T06:43:50;23.40;99.90
56322;DHT22;42227;6.376;-10.782;2022-10-16T06:46:21;23.60;99.90
56322;DHT22;42227;6.376;-10.782;2022-10-16T06:48:50;23.60;99.90
56322;DHT22;42227;6.376;-10.782;2022-10-16T06:51:20;23.60;99.90
56322;DHT22;42227;6.376;-10.782;2022-10-16T06:53:50;23.70;99.90
56322;DHT22;42227;6.376;-10.782;2022-10-16T06:56:36;23.80;99.90
56322;DHT22;42227;6.376;-10.782;2022-10-16T06:59:04;24.00;99.90
56322;DHT22;42227;6.376;-10.782;2022-10-16T07:01:33;23.90;99.90
56322;DHT22;42227;6.376;-10.782;2022-10-16T07:04:01;24.10;99.90
56322;DHT22;42227;6.376;-10.782;2022-10-16T07:06:32;23.90;99.90
56322;DHT22;42227;6.376;-10.782;2022-10-16T07:09:05;23.80;99.90
56322;DHT22;42227;6.376;-10.782;2022-10-16T07:11:34;23.90;99.90
56322;DHT22;42227;6.376;-10.782;2022-10-16T07:14:02;24.00;99.90
56322;DHT22;42227;6.376;-10.782;2022-10-16T07:16:32;23.90;99.90
56322;DHT22;42227;6.376;-10.782;2022-10-16T07:19:01;23.90;99.90
56322;DHT22;42227;6.376;-10.782;2022-10-16T07:21:33;24.20;99.90
56322;DHT22;42227;6.376;-10.782;2022-10-16T07:24:02;24.10;99.90
56322;DHT22;42227;6.376;-10.782;2022-10-16T07:26:34;24.00;99.90
56322;DHT22;42227;6.376;-10.782;2022-10-16T07:29:02;24.10;99.90
56322;DHT22;42227;6.376;-10.782;2022-10-16T07:31:31;24.20;99.90
56322;DHT22;42227;6.376;-10.782;2022-10-16T07:34:00;24.30;99.90
56322;DHT22;42227;6.376;-10.782;2022-10-16T07:36:28;24.30;99.90
56322;DHT22;42227;6.376;-10.782;2022-10-16T07:38:57;24.40;99.90
56322;DHT22;42227;6.376;-10.782;2022-10-16T07:41:27;24.60;99.90
56322;DHT22;42227;6.376;-10.782;2022-10-16T07:43:56;24.70;99.90
56322;DHT22;42227;6.376;-10.782;2022-10-16T07:46:24;24.80;99.90
56322;DHT22;42227;6.376;-10.782;2022-10-16T07:48:53;25.10;99.90
56322;DHT22;42227;6.376;-10.782;2022-10-16T07:51:25;25.50;99.90
56322;DHT22;42227;6.376;-10.782;2022-10-16T07:53:54;25.90;99.90
56322;DHT22;42227;6.376;-10.782;2022-10-16T07:56:22;26.40;99.90
56322;DHT22;42227;6.376;-10.782;2022-10-16T07:58:51;27.40;99.90
56322;DHT22;42227;6.376;-10.782;2022-10-16T08:01:20;28.90;99.90
56322;DHT22;42227;6.376;-10.782;2022-10-16T08:03:50;28.50;99.90
56322;DHT22;42227;6.376;-10.782;2022-10-16T08:06:20;27.90;99.90
56322;DHT22;42227;6.376;-10.782;2022-10-16T08:08:55;27.10;99.90
56322;DHT22;42227;6.376;-10.782;2022-10-16T08:11:24;27.00;99.90
56322;DHT22;42227;6.376;-10.782;2022-10-16T08:13:52;27.00;99.90
56322;DHT22;42227;6.376;-10.782;2022-10-16T08:16:21;27.50;99.90
56322;DHT22;42227;6.376;-10.782;2022-10-16T08:18:49;28.10;99.90
56322;DHT22;42227;6.376;-10.782;2022-10-16T08:21:19;27.80;99.90
56322;DHT22;42227;6.376;-10.782;2022-10-16T08:23:49;27.80;99.90
56322;DHT22;42227;6.376;-10.782;2022-10-16T08:26:25;28.40;99.90
56322;DHT22;42227;6.376;-10.782;2022-10-16T08:28:54;29.00;99.90
56322;DHT22;42227;6.376;-10.782;2022-10-16T08:31:23;29.50;99.90
56322;DHT22;42227;6.376;-10.782;2022-10-16T08:33:51;30.30;99.90
56322;DHT22;42227;6.376;-10.782;2022-10-16T08:36:19;30.70;99.90
56322;DHT22;42227;6.376;-10.782;2022-10-16T08:38:49;30.40;99.90
56322;DHT22;42227;6.376;-10.782;2022-10-16T08:41:23;29.80;99.90
56322;DHT22;42227;6.376;-10.782;2022-10-16T08:49:58;28.40;99.90
56322;DHT22;42227;6.376;-10.782;2022-10-16T08:52:31;28.10;99.90
56322;DHT22;42227;6.376;-10.782;2022-10-16T08:55:00;27.90;99.90
56322;DHT22;42227;6.376;-10.782;2022-10-16T08:57:29;27.90;99.90
56322;DHT22;42227;6.376;-10.782;2022-10-16T09:00:00;28.10;99.90
56322;DHT22;42227;6.376;-10.782;2022-10-16T09:02:40;28.50;99.90
56322;DHT22;42227;6.376;-10.782;2022-10-16T09:10:56;29.30;99.90
56322;DHT22;42227;6.376;-10.782;2022-10-16T09:13:34;29.70;99.90
56322;DHT22;42227;6.376;-10.782;2022-10-16T09:19:01;30.00;99.90
56322;DHT22;42227;6.376;-10.782;2022-10-16T09:21:38;30.60;99.90
56322;DHT22;42227;6.376;-10.782;2022-10-16T09:24:15;30.90;99.90
56322;DHT22;42227;6.376;-10.782;2022-10-16T09:26:43;31.30;99.90
56322;DHT22;42227;6.376;-10.782;2022-10-16T09:29:17;31.10;99.90
56322;DHT22;42227;6.376;-10.782;2022-10-16T09:31:46;31.50;99.90
56322;DHT22;42227;6.376;-10.782;2022-10-16T09:34:31;31.70;99.90
56322;DHT22;42227;6.376;-10.782;2022-10-16T09:37:03;31.40;99.90
56322;DHT22;42227;6.376;-10.782;2022-10-16T09:39:48;30.20;99.90
56322;DHT22;42227;6.376;-10.782;2022-10-16T09:42:30;30.30;99.90
56322;DHT22;42227;6.376;-10.782;2022-10-16T09:44:59;30.30;99.90
56322;DHT22;42227;6.376;-10.782;2022-10-16T09:47:28;29.70;99.90
56322;DHT22;42227;6.376;-10.782;2022-10-16T09:50:13;30.10;99.90
56322;DHT22;42227;6.376;-10.782;2022-10-16T09:52:47;30.20;99.90
56322;DHT22;42227;6.376;-10.782;2022-10-16T09:55:17;30.10;99.90
56322;DHT22;42227;6.376;-10.782;2022-10-16T09:57:50;30.50;99.90
56322;DHT22;42227;6.376;-10.782;2022-10-16T10:00:20;31.10;99.90
56322;DHT22;42227;6.376;-10.782;2022-10-16T10:02:49;31.70;99.90
56322;DHT22;42227;6.376;-10.782;2022-10-16T10:05:27;30.90;99.90
56322;DHT22;42227;6.376;-10.782;2022-10-16T10:08:02;30.80;99.90
56322;DHT22;42227;6.376;-10.782;2022-10-16T10:10:33;31.30;99.90
56322;DHT22;42227;6.376;-10.782;2022-10-16T10:13:02;30.90;99.90
56322;DHT22;42227;6.376;-10.782;2022-10-16T10:15:34;30.60;99.90
56322;DHT22;42227;6.376;-10.782;2022-10-16T10:18:20;31.10;99.90
56322;DHT22;42227;6.376;-10.782;2022-10-16T10:21:02;31.40;99.90
56322;DHT22;42227;6.376;-10.782;2022-10-16T10:23:35;31.30;99.90
56322;DHT22;42227;6.376;-10.782;2022-10-16T10:42:53;31.50;99.90
56322;DHT22;42227;6.376;-10.782;2022-10-16T10:45:28;30.90;99.90
56322;DHT22;42227;6.376;-10.782;2022-10-16T10:50:54;30.40;99.90
56322;DHT22;42227;6.376;-10.782;2022-10-16T10:53:48;30.40;99.90
56322;DHT22;42227;6.376;-10.782;2022-10-16T10:59:34;30.40;99.90
56322;DHT22;42227;6.376;-10.782;2022-10-16T11:02:23;30.60;99.90
56322;DHT22;42227;6.376;-10.782;2022-10-16T11:04:55;30.40;99.90
56322;DHT22;42227;6.376;-10.782;2022-10-16T11:07:25;30.60;99.90
56322;DHT22;42227;6.376;-10.782;2022-10-16T11:10:33;30.70;99.90
56322;DHT22;42227;6.376;-10.782;2022-10-16T11:13:06;30.50;99.90
56322;DHT22;42227;6.376;-10.782;2022-10-16T11:15:39;30.90;99.90
56322;DHT22;42227;6.376;-10.782;2022-10-16T11:18:30;31.20;99.90
56322;DHT22;42227;6.376;-10.782;2022-10-16T11:21:11;31.20;99.90
56322;DHT22;42227;6.376;-10.782;2022-10-16T11:24:00;31.00;99.90
56322;DHT22;42227;6.376;-10.782;2022-10-16T11:26:34;30.80;99.90
56322;DHT22;42227;6.376;-10.782;2022-10-16T11:29:05;30.60;99.90
56322;DHT22;42227;6.376;-10.782;2022-10-16T11:31:49;30.40;99.90
56322;DHT22;42227;6.376;-10.782;2022-10-16T11:34:43;30.40;99.90
56322;DHT22;42227;6.376;-10.782;2022-10-16T11:37:23;30.10;99.90
56322;DHT22;42227;6.376;-10.782;2022-10-16T11:39:54;30.30;99.90
56322;DHT22;42227;6.376;-10.782;2022-10-16T11:42:39;30.60;99.90
56322;DHT22;42227;6.376;-10.782;2022-10-16T11:45:24;30.70;99.90
56322;DHT22;42227;6.376;-10.782;2022-10-16T11:48:02;30.50;99.90
56322;DHT22;42227;6.376;-10.782;2022-10-16T11:56:28;31.20;99.90
56322;DHT22;42227;6.376;-10.782;2022-10-16T11:59:02;31.00;99.90
56322;DHT22;42227;6.376;-10.782;2022-10-16T12:01:47;30.90;99.90
56322;DHT22;42227;6.376;-10.782;2022-10-16T12:04:22;30.90;99.90
56322;DHT22;42227;6.376;-10.782;2022-10-16T12:07:08;30.80;99.90
56322;DHT22;42227;6.376;-10.782;2022-10-16T12:09:38;30.50;99.90
56322;DHT22;42227;6.376;-10.782;2022-10-16T12:15:25;30.10;99.90
56322;DHT22;42227;6.376;-10.782;2022-10-16T12:18:24;30.00;99.90
56322;DHT22;42227;6.376;-10.782;2022-10-16T12:20:59;30.10;99.90
56322;DHT22;42227;6.376;-10.782;2022-10-16T12:23:28;30.30;99.90
56322;DHT22;42227;6.376;-10.782;2022-10-16T12:25:58;30.50;99.90
56322;DHT22;42227;6.376;-10.782;2022-10-16T12:28:31;30.50;99.90
56322;DHT22;42227;6.376;-10.782;2022-10-16T12:31:02;30.80;99.90
56322;DHT22;42227;6.376;-10.782;2022-10-16T12:33:34;30.80;99.90
56322;DHT22;42227;6.376;-10.782;2022-10-16T12:36:16;30.70;99.90
56322;DHT22;42227;6.376;-10.782;2022-10-16T12:38:54;30.80;99.90
56322;DHT22;42227;6.376;-10.782;2022-10-16T12:41:31;31.20;99.90
56322;DHT22;42227;6.376;-10.782;2022-10-16T12:44:00;31.20;99.90
56322;DHT22;42227;6.376;-10.782;2022-10-16T12:51:43;30.70;99.90
56322;DHT22;42227;6.376;-10.782;2022-10-16T12:54:15;30.70;99.90
56322;DHT22;42227;6.376;-10.782;2022-10-16T13:27:37;31.10;99.90
56322;DHT22;42227;6.376;-10.782;2022-10-16T13:30:17;31.40;99.90
56322;DHT22;42227;6.376;-10.782;2022-10-16T13:32:48;31.40;99.90
56322;DHT22;42227;6.376;-10.782;2022-10-16T13:35:27;31.20;99.90
56322;DHT22;42227;6.376;-10.782;2022-10-16T13:38:17;31.10;99.90
56322;DHT22;42227;6.376;-10.782;2022-10-16T13:41:00;30.90;99.90
56322;DHT22;42227;6.376;-10.782;2022-10-16T13:43:32;30.90;99.90
56322;DHT22;42227;6.376;-10.782;2022-10-16T13:46:07;30.90;99.90
56322;DHT22;42227;6.376;-10.782;2022-10-16T13:48:38;31.00;99.90
56322;DHT22;42227;6.376;-10.782;2022-10-16T13:51:18;30.60;99.90
56322;DHT22;42227;6.376;-10.782;2022-10-16T13:53:46;30.90;99.90
56322;DHT22;42227;6.376;-10.782;2022-10-16T13:56:18;31.00;99.90
56322;DHT22;42227;6.376;-10.782;2022-10-16T13:58:57;30.90;99.90
56322;DHT22;42227;6.376;-10.782;2022-10-16T14:01:28;31.00;99.90
56322;DHT22;42227;6.376;-10.782;2022-10-16T14:04:07;31.10;99.90
56322;DHT22;42227;6.376;-10.782;2022-10-16T14:06:40;31.50;99.90
56322;DHT22;42227;6.376;-10.782;2022-10-16T14:09:29;31.80;99.90
56322;DHT22;42227;6.376;-10.782;2022-10-16T14:12:01;31.60;99.90
56322;DHT22;42227;6.376;-10.782;2022-10-16T14:14:56;31.60;99.90
56322;DHT22;42227;6.376;-10.782;2022-10-16T14:17:26;31.40;99.90
56322;DHT22;42227;6.376;-10.782;2022-10-16T14:19:57;31.60;99.90
56322;DHT22;42227;6.376;-10.782;2022-10-16T14:22:40;31.70;99.90
56322;DHT22;42227;6.376;-10.782;2022-10-16T14:30:36;31.80;99.90
56322;DHT22;42227;6.376;-10.782;2022-10-16T14:36:16;31.90;99.90
56322;DHT22;42227;6.376;-10.782;2022-10-16T14:39:01;31.30;99.90
56322;DHT22;42227;6.376;-10.782;2022-10-16T14:41:32;31.20;99.90
56322;DHT22;42227;6.376;-10.782;2022-10-16T14:44:11;31.00;99.90
56322;DHT22;42227;6.376;-10.782;2022-10-16T14:46:41;30.80;99.90
56322;DHT22;42227;6.376;-10.782;2022-10-16T14:51:40;30.40;99.90
56322;DHT22;42227;6.376;-10.782;2022-10-16T14:54:09;30.50;99.90
56322;DHT22;42227;6.376;-10.782;2022-10-16T14:56:47;30.50;99.90
56322;DHT22;42227;6.376;-10.782;2022-10-16T15:02:27;30.80;99.90
56322;DHT22;42227;6.376;-10.782;2022-10-16T15:04:57;31.10;99.90
56322;DHT22;42227;6.376;-10.782;2022-10-16T15:07:25;30.90;99.90
56322;DHT22;42227;6.376;-10.782;2022-10-16T15:09:54;31.20;99.90
56322;DHT22;42227;6.376;-10.782;2022-10-16T15:12:22;31.40;99.90
56322;DHT22;42227;6.376;-10.782;2022-10-16T15:14:50;31.70;99.90
56322;DHT22;42227;6.376;-10.782;2022-10-16T15:17:19;31.90;99.90
56322;DHT22;42227;6.376;-10.782;2022-10-16T15:19:48;31.40;99.90
56322;DHT22;42227;6.376;-10.782;2022-10-16T15:22:16;31.00;99.90
56322;DHT22;42227;6.376;-10.782;2022-10-16T15:24:45;30.90;99.90
56322;DHT22;42227;6.376;-10.782;2022-10-16T15:27:13;30.90;99.90
56322;DHT22;42227;6.376;-10.782;2022-10-16T15:29:41;31.10;99.90
56322;DHT22;42227;6.376;-10.782;2022-10-16T15:32:10;31.50;99.90
56322;DHT22;42227;6.376;-10.782;2022-10-16T15:34:38;31.40;99.90
56322;DHT22;42227;6.376;-10.782;2022-10-16T15:37:08;31.20;99.90
56322;DHT22;42227;6.376;-10.782;2022-10-16T15:39:36;30.70;99.90
56322;DHT22;42227;6.376;-10.782;2022-10-16T15:42:07;30.40;99.90
56322;DHT22;42227;6.376;-10.782;2022-10-16T15:44:35;30.60;99.90
56322;DHT22;42227;6.376;-10.782;2022-10-16T15:47:04;30.90;99.90
56322;DHT22;42227;6.376;-10.782;2022-10-16T15:49:32;31.00;99.90
56322;DHT22;42227;6.376;-10.782;2022-10-16T15:52:00;31.40;99.90
56322;DHT22;42227;6.376;-10.782;2022-10-16T15:54:28;31.20;99.90
56322;DHT22;42227;6.376;-10.782;2022-10-16T15:56:56;31.20;99.90
56322;DHT22;42227;6.376;-10.782;2022-10-16T15:59:25;30.90;99.90
56322;DHT22;42227;6.376;-10.782;2022-10-16T16:01:53;30.80;99.90
56322;DHT22;42227;6.376;-10.782;2022-10-16T16:04:21;30.70;99.90
56322;DHT22;42227;6.376;-10.782;2022-10-16T16:07:09;30.80;99.90
56322;DHT22;42227;6.376;-10.782;2022-10-16T16:09:38;30.70;99.90
56322;DHT22;42227;6.376;-10.782;2022-10-16T16:12:06;30.60;99.90
56322;DHT22;42227;6.376;-10.782;2022-10-16T16:14:34;30.90;99.90
56322;DHT22;42227;6.376;-10.782;2022-10-16T16:17:02;31.20;99.90
56322;DHT22;42227;6.376;-10.782;2022-10-16T16:19:31;30.90;99.90
56322;DHT22;42227;6.376;-10.782;2022-10-16T16:21:59;30.50;99.90
56322;DHT22;42227;6.376;-10.782;2022-10-16T16:24:27;30.30;99.90
56322;DHT22;42227;6.376;-10.782;2022-10-16T16:26:55;30.30;99.90
56322;DHT22;42227;6.376;-10.782;2022-10-16T16:29:23;30.10;99.90
56322;DHT22;42227;6.376;-10.782;2022-10-16T16:31:52;29.50;99.90
56322;DHT22;42227;6.376;-10.782;2022-10-16T16:34:20;29.40;99.90
56322;DHT22;42227;6.376;-10.782;2022-10-16T16:36:48;29.40;99.90
56322;DHT22;42227;6.376;-10.782;2022-10-16T16:39:17;29.50;99.90
56322;DHT22;42227;6.376;-10.782;2022-10-16T16:41:45;29.70;99.90
56322;DHT22;42227;6.376;-10.782;2022-10-16T16:44:15;29.40;99.90
56322;DHT22;42227;6.376;-10.782;2022-10-16T16:46:44;29.20;99.90
56322;DHT22;42227;6.376;-10.782;2022-10-16T16:49:13;28.90;99.90
56322;DHT22;42227;6.376;-10.782;2022-10-16T16:51:41;28.90;99.90
56322;DHT22;42227;6.376;-10.782;2022-10-16T16:54:11;28.90;99.90
56322;DHT22;42227;6.376;-10.782;2022-10-16T16:56:40;29.00;99.90
56322;DHT22;42227;6.376;-10.782;2022-10-16T16:59:18;29.10;99.90
56322;DHT22;42227;6.376;-10.782;2022-10-16T17:01:47;29.00;99.90
56322;DHT22;42227;6.376;-10.782;2022-10-16T17:04:22;29.00;99.90
56322;DHT22;42227;6.376;-10.782;2022-10-16T17:06:50;29.10;99.90
56322;DHT22;42227;6.376;-10.782;2022-10-16T17:09:20;29.00;99.90
56322;DHT22;42227;6.376;-10.782;2022-10-16T17:11:48;28.90;99.90
56322;DHT22;42227;6.376;-10.782;2022-10-16T17:14:17;28.90;99.90
56322;DHT22;42227;6.376;-10.782;2022-10-16T17:16:45;28.50;99.90
56322;DHT22;42227;6.376;-10.782;2022-10-16T17:19:16;28.20;99.90
56322;DHT22;42227;6.376;-10.782;2022-10-16T17:21:45;28.00;99.90
56322;DHT22;42227;6.376;-10.782;2022-10-16T17:24:15;28.30;99.90
56322;DHT22;42227;6.376;-10.782;2022-10-16T17:26:43;28.40;99.90
56322;DHT22;42227;6.376;-10.782;2022-10-16T17:29:12;28.20;99.90
56322;DHT22;42227;6.376;-10.782;2022-10-16T17:31:40;28.10;99.90
56322;DHT22;42227;6.376;-10.782;2022-10-16T17:34:09;27.90;99.90
56322;DHT22;42227;6.376;-10.782;2022-10-16T17:36:39;28.00;99.90
56322;DHT22;42227;6.376;-10.782;2022-10-16T17:39:09;28.30;99.90